Airfield :
LOGIN :

Register | Disclaimer

   EN    FR    IT 

 










Legend :    VFR   Marginal VFR   IFR   Intensive IFR   Very Intensive IFR
Visi :
Ceiling :
>= 8 km
>= 3000ft
5 to 8 km
1000 to 3000 ft
1500m to 5 km
500 to 1000 ft
800 to 1500m
200 to 500 ft
< 800m
< 200 ft
Symbols :   Thunderstorms  Fog  Heavy snow  Heavy precipitations  Wind > 20 kt
SIGMETs :     Misc.  Thunderstorms  Icing  Turbulence  Mountain Waves  Volcanic Ashes







- Airport Elevation : 41 ft


LIRE - Pratica di Mare Air Base Pomezia

CURRENT METAR :
  • 171755Z 03003KT CAVOK 17/16 Q1023 RMK SKC VIS MIN 9999 WIND THR13 04002KT WIND THR31 04003KT BLU

EXPIRED METARs :
  • 171655Z 27001KT CAVOK 19/17 Q1023 RMK SKC VIS MIN 9999 WIND THR13 35001KT WIND THR31 29001KT BLU
  • 171555Z 22003KT 9999 FEW040 21/17 Q1023 RMK FEW VIS MIN 9999 WIND THR13 023004KT WIND THR31 23003KT BLU

TAF TAF LIRE
Valid from the 17 at 18:00 until the 18 at 03:00 UTC


171700Z 1718/1803 27001KT 9999 FEW020
BECMG 1722/1724 17003KT 5000 BR
PROB30
TEMPO 1800/1803 0800 FG
No reported NOTAMs for that airfield.



MET'MAP, your aeronautical weather chart ! - Copyright ORBIFLY December 2007 - Disclaimer

ORBIFLY MET'MAP TEAM :

Programming & Development : Alexandra Zaïnal
Concept & Development : Baudouin d'Aumeries
Co-Development & Prog : Marc-Olivier Méhu
Technical & hardware support : Manuel Goepfert

Contact : metmap@orbifly.com




SOURCES & CREDITS :

   NOAA